sensor_id;sensor_type;location;lat;lon;timestamp;P1;durP1;ratioP1;P2;durP2;ratioP2
69511;SDS011;70777;52.034;4.644;2023-11-18T00:01:43;39.33;;;18.58;;
69511;SDS011;70777;52.034;4.644;2023-11-18T00:04:13;38.13;;;19.30;;
69511;SDS011;70777;52.034;4.644;2023-11-18T00:06:42;44.53;;;18.42;;
69511;SDS011;70777;52.034;4.644;2023-11-18T00:09:13;35.72;;;18.17;;
69511;SDS011;70777;52.034;4.644;2023-11-18T00:11:41;35.35;;;18.73;;
69511;SDS011;70777;52.034;4.644;2023-11-18T00:14:13;34.38;;;16.67;;
69511;SDS011;70777;52.034;4.644;2023-11-18T00:16:45;32.67;;;17.50;;
69511;SDS011;70777;52.034;4.644;2023-11-18T00:19:15;35.30;;;17.98;;
69511;SDS011;70777;52.034;4.644;2023-11-18T00:21:46;33.25;;;18.25;;
69511;SDS011;70777;52.034;4.644;2023-11-18T00:24:15;35.00;;;17.60;;
69511;SDS011;70777;52.034;4.644;2023-11-18T00:26:44;33.55;;;17.20;;
69511;SDS011;70777;52.034;4.644;2023-11-18T00:29:15;36.45;;;18.33;;
69511;SDS011;70777;52.034;4.644;2023-11-18T00:31:44;34.58;;;18.20;;
69511;SDS011;70777;52.034;4.644;2023-11-18T00:34:15;38.53;;;17.75;;
69511;SDS011;70777;52.034;4.644;2023-11-18T00:36:45;35.95;;;17.98;;
69511;SDS011;70777;52.034;4.644;2023-11-18T00:39:16;36.03;;;16.95;;
69511;SDS011;70777;52.034;4.644;2023-11-18T00:41:47;32.10;;;16.75;;
69511;SDS011;70777;52.034;4.644;2023-11-18T00:44:18;31.65;;;16.27;;
69511;SDS011;70777;52.034;4.644;2023-11-18T00:46:49;40.08;;;18.73;;
69511;SDS011;70777;52.034;4.644;2023-11-18T00:49:19;32.95;;;17.90;;
69511;SDS011;70777;52.034;4.644;2023-11-18T00:51:49;35.35;;;17.45;;
69511;SDS011;70777;52.034;4.644;2023-11-18T00:54:18;33.83;;;17.85;;
69511;SDS011;70777;52.034;4.644;2023-11-18T00:56:49;35.40;;;19.60;;
69511;SDS011;70777;52.034;4.644;2023-11-18T00:59:19;41.20;;;19.00;;
69511;SDS011;70777;52.034;4.644;2023-11-18T01:01:50;35.53;;;19.55;;
69511;SDS011;70777;52.034;4.644;2023-11-18T01:04:19;34.70;;;19.00;;
69511;SDS011;70777;52.034;4.644;2023-11-18T01:06:50;41.10;;;20.83;;
69511;SDS011;70777;52.034;4.644;2023-11-18T01:09:20;46.85;;;19.35;;
69511;SDS011;70777;52.034;4.644;2023-11-18T01:11:52;37.20;;;18.88;;
69511;SDS011;70777;52.034;4.644;2023-11-18T01:14:23;35.60;;;19.17;;
69511;SDS011;70777;52.034;4.644;2023-11-18T01:16:53;37.03;;;18.27;;
69511;SDS011;70777;52.034;4.644;2023-11-18T01:19:22;37.17;;;20.38;;
69511;SDS011;70777;52.034;4.644;2023-11-18T01:21:50;36.80;;;19.70;;
69511;SDS011;70777;52.034;4.644;2023-11-18T01:24:22;44.13;;;19.92;;
69511;SDS011;70777;52.034;4.644;2023-11-18T01:26:51;39.42;;;20.60;;
69511;SDS011;70777;52.034;4.644;2023-11-18T01:29:21;38.75;;;19.45;;
69511;SDS011;70777;52.034;4.644;2023-11-18T01:31:50;40.17;;;20.05;;
69511;SDS011;70777;52.034;4.644;2023-11-18T01:34:21;36.35;;;19.05;;
69511;SDS011;70777;52.034;4.644;2023-11-18T01:36:54;47.72;;;21.45;;
69511;SDS011;70777;52.034;4.644;2023-11-18T01:39:25;41.42;;;21.00;;
69511;SDS011;70777;52.034;4.644;2023-11-18T01:42:01;42.08;;;20.88;;
69511;SDS011;70777;52.034;4.644;2023-11-18T01:44:29;38.85;;;19.70;;
69511;SDS011;70777;52.034;4.644;2023-11-18T01:46:59;38.60;;;20.30;;
69511;SDS011;70777;52.034;4.644;2023-11-18T01:49:37;39.47;;;19.92;;
69511;SDS011;70777;52.034;4.644;2023-11-18T01:52:08;44.33;;;20.65;;
69511;SDS011;70777;52.034;4.644;2023-11-18T01:54:40;41.15;;;21.30;;
69511;SDS011;70777;52.034;4.644;2023-11-18T01:57:11;34.97;;;18.65;;
69511;SDS011;70777;52.034;4.644;2023-11-18T01:59:43;46.25;;;20.17;;
69511;SDS011;70777;52.034;4.644;2023-11-18T02:02:14;35.78;;;19.63;;
69511;SDS011;70777;52.034;4.644;2023-11-18T02:04:47;43.05;;;22.10;;
69511;SDS011;70777;52.034;4.644;2023-11-18T02:07:17;34.85;;;19.25;;
69511;SDS011;70777;52.034;4.644;2023-11-18T02:09:47;36.55;;;20.02;;
69511;SDS011;70777;52.034;4.644;2023-11-18T02:12:26;39.72;;;20.00;;
69511;SDS011;70777;52.034;4.644;2023-11-18T02:15:02;44.40;;;21.50;;
69511;SDS011;70777;52.034;4.644;2023-11-18T02:17:39;36.20;;;18.48;;
69511;SDS011;70777;52.034;4.644;2023-11-18T02:20:08;40.22;;;20.45;;
69511;SDS011;70777;52.034;4.644;2023-11-18T02:22:48;42.05;;;21.58;;
69511;SDS011;70777;52.034;4.644;2023-11-18T02:25:17;40.40;;;20.77;;
69511;SDS011;70777;52.034;4.644;2023-11-18T02:27:45;39.40;;;19.55;;
69511;SDS011;70777;52.034;4.644;2023-11-18T02:30:15;39.00;;;21.17;;
69511;SDS011;70777;52.034;4.644;2023-11-18T02:32:47;43.40;;;21.02;;
69511;SDS011;70777;52.034;4.644;2023-11-18T02:35:37;37.90;;;19.35;;
69511;SDS011;70777;52.034;4.644;2023-11-18T02:38:10;41.28;;;20.23;;
69511;SDS011;70777;52.034;4.644;2023-11-18T02:40:42;39.53;;;20.60;;
69511;SDS011;70777;52.034;4.644;2023-11-18T02:43:17;39.33;;;21.30;;
69511;SDS011;70777;52.034;4.644;2023-11-18T02:45:47;36.97;;;20.55;;
69511;SDS011;70777;52.034;4.644;2023-11-18T02:48:17;44.83;;;21.95;;
69511;SDS011;70777;52.034;4.644;2023-11-18T02:50:46;40.25;;;23.10;;
69511;SDS011;70777;52.034;4.644;2023-11-18T02:53:17;39.15;;;22.67;;
69511;SDS011;70777;52.034;4.644;2023-11-18T02:55:47;38.30;;;21.95;;
69511;SDS011;70777;52.034;4.644;2023-11-18T02:58:20;44.10;;;21.92;;
69511;SDS011;70777;52.034;4.644;2023-11-18T03:00:49;40.03;;;23.33;;
69511;SDS011;70777;52.034;4.644;2023-11-18T03:03:19;45.30;;;23.25;;
69511;SDS011;70777;52.034;4.644;2023-11-18T03:05:50;39.58;;;21.42;;
69511;SDS011;70777;52.034;4.644;2023-11-18T03:08:19;41.85;;;22.25;;
69511;SDS011;70777;52.034;4.644;2023-11-18T03:10:50;34.13;;;21.23;;
69511;SDS011;70777;52.034;4.644;2023-11-18T03:13:21;37.17;;;20.23;;
69511;SDS011;70777;52.034;4.644;2023-11-18T03:15:52;39.92;;;19.55;;
69511;SDS011;70777;52.034;4.644;2023-11-18T03:18:22;40.55;;;19.85;;
69511;SDS011;70777;52.034;4.644;2023-11-18T03:20:52;38.88;;;19.33;;
69511;SDS011;70777;52.034;4.644;2023-11-18T03:23:23;35.63;;;19.17;;
69511;SDS011;70777;52.034;4.644;2023-11-18T03:25:52;42.00;;;19.25;;
69511;SDS011;70777;52.034;4.644;2023-11-18T03:28:22;39.50;;;19.67;;
69511;SDS011;70777;52.034;4.644;2023-11-18T03:30:52;41.10;;;19.55;;
69511;SDS011;70777;52.034;4.644;2023-11-18T03:33:22;37.42;;;20.50;;
69511;SDS011;70777;52.034;4.644;2023-11-18T03:35:53;37.83;;;19.15;;
69511;SDS011;70777;52.034;4.644;2023-11-18T03:38:23;36.25;;;18.38;;
69511;SDS011;70777;52.034;4.644;2023-11-18T03:40:58;38.50;;;18.27;;
69511;SDS011;70777;52.034;4.644;2023-11-18T03:43:27;32.85;;;19.73;;
69511;SDS011;70777;52.034;4.644;2023-11-18T03:45:59;35.47;;;18.83;;
69511;SDS011;70777;52.034;4.644;2023-11-18T03:48:28;35.67;;;19.52;;
69511;SDS011;70777;52.034;4.644;2023-11-18T03:53:24;38.47;;;19.02;;
69511;SDS011;70777;52.034;4.644;2023-11-18T03:55:54;30.70;;;19.52;;
69511;SDS011;70777;52.034;4.644;2023-11-18T03:58:24;43.42;;;19.33;;
69511;SDS011;70777;52.034;4.644;2023-11-18T04:00:54;42.58;;;23.13;;
69511;SDS011;70777;52.034;4.644;2023-11-18T04:03:25;38.28;;;20.85;;
69511;SDS011;70777;52.034;4.644;2023-11-18T04:05:56;39.78;;;20.38;;
69511;SDS011;70777;52.034;4.644;2023-11-18T04:08:26;43.67;;;20.98;;
69511;SDS011;70777;52.034;4.644;2023-11-18T04:10:57;39.90;;;21.50;;
69511;SDS011;70777;52.034;4.644;2023-11-18T04:13:29;34.92;;;21.17;;
69511;SDS011;70777;52.034;4.644;2023-11-18T04:15:59;38.75;;;21.73;;
69511;SDS011;70777;52.034;4.644;2023-11-18T04:18:29;40.88;;;21.38;;
69511;SDS011;70777;52.034;4.644;2023-11-18T04:21:00;38.60;;;21.80;;
69511;SDS011;70777;52.034;4.644;2023-11-18T04:23:31;38.75;;;22.52;;
69511;SDS011;70777;52.034;4.644;2023-11-18T04:26:06;42.22;;;21.67;;
69511;SDS011;70777;52.034;4.644;2023-11-18T04:28:35;41.83;;;22.15;;
69511;SDS011;70777;52.034;4.644;2023-11-18T04:31:04;40.88;;;21.35;;
69511;SDS011;70777;52.034;4.644;2023-11-18T04:33:32;42.38;;;23.48;;
69511;SDS011;70777;52.034;4.644;2023-11-18T04:36:04;40.78;;;22.60;;
69511;SDS011;70777;52.034;4.644;2023-11-18T04:38:35;37.17;;;21.75;;
69511;SDS011;70777;52.034;4.644;2023-11-18T04:41:03;39.88;;;22.00;;
69511;SDS011;70777;52.034;4.644;2023-11-18T04:43:33;42.58;;;23.00;;
69511;SDS011;70777;52.034;4.644;2023-11-18T04:46:05;43.80;;;22.30;;
69511;SDS011;70777;52.034;4.644;2023-11-18T04:48:34;41.55;;;22.05;;
69511;SDS011;70777;52.034;4.644;2023-11-18T04:51:05;42.60;;;20.48;;
69511;SDS011;70777;52.034;4.644;2023-11-18T04:53:35;39.28;;;21.58;;
69511;SDS011;70777;52.034;4.644;2023-11-18T04:56:06;39.25;;;21.15;;
69511;SDS011;70777;52.034;4.644;2023-11-18T04:58:40;38.38;;;20.38;;
69511;SDS011;70777;52.034;4.644;2023-11-18T05:01:13;45.50;;;21.00;;
69511;SDS011;70777;52.034;4.644;2023-11-18T05:03:43;34.60;;;19.80;;
69511;SDS011;70777;52.034;4.644;2023-11-18T05:06:12;39.10;;;20.45;;
69511;SDS011;70777;52.034;4.644;2023-11-18T05:08:43;37.42;;;20.83;;
69511;SDS011;70777;52.034;4.644;2023-11-18T05:11:13;37.03;;;19.55;;
69511;SDS011;70777;52.034;4.644;2023-11-18T05:13:44;32.17;;;19.10;;
69511;SDS011;70777;52.034;4.644;2023-11-18T05:16:16;34.92;;;18.85;;
69511;SDS011;70777;52.034;4.644;2023-11-18T05:18:47;38.53;;;18.90;;
69511;SDS011;70777;52.034;4.644;2023-11-18T05:21:23;35.03;;;18.17;;
69511;SDS011;70777;52.034;4.644;2023-11-18T05:23:53;35.28;;;17.88;;
69511;SDS011;70777;52.034;4.644;2023-11-18T05:26:25;36.25;;;18.92;;
69511;SDS011;70777;52.034;4.644;2023-11-18T05:28:56;37.08;;;18.45;;
69511;SDS011;70777;52.034;4.644;2023-11-18T05:31:28;38.15;;;18.95;;
69511;SDS011;70777;52.034;4.644;2023-11-18T05:34:00;33.08;;;17.50;;
69511;SDS011;70777;52.034;4.644;2023-11-18T05:36:31;38.15;;;18.67;;
69511;SDS011;70777;52.034;4.644;2023-11-18T05:39:03;31.88;;;18.02;;
69511;SDS011;70777;52.034;4.644;2023-11-18T05:41:35;32.30;;;17.17;;
69511;SDS011;70777;52.034;4.644;2023-11-18T05:44:07;33.40;;;17.33;;
69511;SDS011;70777;52.034;4.644;2023-11-18T05:46:46;27.98;;;15.88;;
69511;SDS011;70777;52.034;4.644;2023-11-18T05:49:18;31.40;;;16.52;;
69511;SDS011;70777;52.034;4.644;2023-11-18T05:51:54;33.67;;;17.15;;
69511;SDS011;70777;52.034;4.644;2023-11-18T05:54:27;30.80;;;16.38;;
69511;SDS011;70777;52.034;4.644;2023-11-18T05:56:58;32.22;;;16.35;;
69511;SDS011;70777;52.034;4.644;2023-11-18T05:59:29;35.92;;;15.80;;
69511;SDS011;70777;52.034;4.644;2023-11-18T06:02:00;34.90;;;15.13;;
69511;SDS011;70777;52.034;4.644;2023-11-18T06:04:31;30.80;;;14.40;;
69511;SDS011;70777;52.034;4.644;2023-11-18T06:07:01;32.67;;;15.82;;
69511;SDS011;70777;52.034;4.644;2023-11-18T06:09:31;32.03;;;14.63;;
69511;SDS011;70777;52.034;4.644;2023-11-18T06:12:02;32.00;;;14.73;;
69511;SDS011;70777;52.034;4.644;2023-11-18T06:14:36;35.25;;;14.40;;
69511;SDS011;70777;52.034;4.644;2023-11-18T06:17:06;33.20;;;13.32;;
69511;SDS011;70777;52.034;4.644;2023-11-18T06:19:35;29.33;;;14.25;;
69511;SDS011;70777;52.034;4.644;2023-11-18T06:22:06;30.05;;;14.38;;
69511;SDS011;70777;52.034;4.644;2023-11-18T06:24:37;27.83;;;14.45;;
69511;SDS011;70777;52.034;4.644;2023-11-18T06:27:09;25.52;;;13.23;;
69511;SDS011;70777;52.034;4.644;2023-11-18T06:29:40;29.73;;;14.00;;
69511;SDS011;70777;52.034;4.644;2023-11-18T06:32:07;29.45;;;13.30;;
69511;SDS011;70777;52.034;4.644;2023-11-18T06:34:35;34.00;;;13.55;;
69511;SDS011;70777;52.034;4.644;2023-11-18T06:37:06;34.47;;;13.73;;
69511;SDS011;70777;52.034;4.644;2023-11-18T06:39:41;26.77;;;13.90;;
69511;SDS011;70777;52.034;4.644;2023-11-18T06:42:14;30.08;;;13.65;;
69511;SDS011;70777;52.034;4.644;2023-11-18T06:44:45;30.52;;;13.38;;
69511;SDS011;70777;52.034;4.644;2023-11-18T06:47:15;30.42;;;13.23;;
69511;SDS011;70777;52.034;4.644;2023-11-18T06:49:47;33.53;;;13.52;;
69511;SDS011;70777;52.034;4.644;2023-11-18T06:52:18;34.65;;;14.85;;
69511;SDS011;70777;52.034;4.644;2023-11-18T06:54:48;31.17;;;14.23;;
69511;SDS011;70777;52.034;4.644;2023-11-18T06:57:19;31.30;;;13.85;;
69511;SDS011;70777;52.034;4.644;2023-11-18T06:59:51;31.58;;;13.13;;
69511;SDS011;70777;52.034;4.644;2023-11-18T07:02:22;35.60;;;13.45;;
69511;SDS011;70777;52.034;4.644;2023-11-18T07:04:54;29.85;;;14.02;;
69511;SDS011;70777;52.034;4.644;2023-11-18T07:07:25;33.60;;;13.55;;
69511;SDS011;70777;52.034;4.644;2023-11-18T07:09:55;26.65;;;12.05;;
69511;SDS011;70777;52.034;4.644;2023-11-18T07:12:27;32.03;;;14.32;;
69511;SDS011;70777;52.034;4.644;2023-11-18T07:15:01;34.35;;;13.13;;
69511;SDS011;70777;52.034;4.644;2023-11-18T07:17:32;38.63;;;13.80;;
69511;SDS011;70777;52.034;4.644;2023-11-18T07:20:03;27.55;;;13.43;;
69511;SDS011;70777;52.034;4.644;2023-11-18T07:22:33;29.02;;;13.10;;
69511;SDS011;70777;52.034;4.644;2023-11-18T07:25:03;23.75;;;13.00;;
69511;SDS011;70777;52.034;4.644;2023-11-18T07:27:36;36.33;;;13.07;;
69511;SDS011;70777;52.034;4.644;2023-11-18T07:30:07;26.00;;;12.65;;
69511;SDS011;70777;52.034;4.644;2023-11-18T07:32:37;33.97;;;13.20;;
69511;SDS011;70777;52.034;4.644;2023-11-18T07:35:06;27.73;;;12.98;;
69511;SDS011;70777;52.034;4.644;2023-11-18T07:37:38;30.02;;;13.32;;
69511;SDS011;70777;52.034;4.644;2023-11-18T07:40:09;32.08;;;13.10;;
69511;SDS011;70777;52.034;4.644;2023-11-18T07:42:41;26.52;;;12.05;;
69511;SDS011;70777;52.034;4.644;2023-11-18T07:45:18;26.15;;;13.20;;
69511;SDS011;70777;52.034;4.644;2023-11-18T07:47:50;25.63;;;12.15;;
69511;SDS011;70777;52.034;4.644;2023-11-18T07:50:21;30.45;;;12.98;;
69511;SDS011;70777;52.034;4.644;2023-11-18T07:52:53;26.02;;;12.77;;
69511;SDS011;70777;52.034;4.644;2023-11-18T07:55:24;26.65;;;12.70;;
69511;SDS011;70777;52.034;4.644;2023-11-18T07:57:55;26.75;;;11.82;;
69511;SDS011;70777;52.034;4.644;2023-11-18T08:00:26;28.52;;;12.05;;
69511;SDS011;70777;52.034;4.644;2023-11-18T08:02:58;22.17;;;11.25;;
69511;SDS011;70777;52.034;4.644;2023-11-18T08:05:30;23.35;;;11.55;;
69511;SDS011;70777;52.034;4.644;2023-11-18T08:08:00;25.08;;;12.52;;
69511;SDS011;70777;52.034;4.644;2023-11-18T08:10:30;26.10;;;14.60;;
69511;SDS011;70777;52.034;4.644;2023-11-18T08:13:05;28.00;;;12.80;;
69511;SDS011;70777;52.034;4.644;2023-11-18T08:15:39;33.28;;;15.00;;
69511;SDS011;70777;52.034;4.644;2023-11-18T08:18:08;31.23;;;14.60;;
69511;SDS011;70777;52.034;4.644;2023-11-18T08:20:39;28.60;;;12.52;;
69511;SDS011;70777;52.034;4.644;2023-11-18T08:23:12;28.88;;;12.50;;
69511;SDS011;70777;52.034;4.644;2023-11-18T08:25:43;22.33;;;11.02;;
69511;SDS011;70777;52.034;4.644;2023-11-18T08:28:15;22.02;;;11.50;;
69511;SDS011;70777;52.034;4.644;2023-11-18T08:30:45;21.30;;;11.23;;
69511;SDS011;70777;52.034;4.644;2023-11-18T08:33:19;20.33;;;11.07;;
69511;SDS011;70777;52.034;4.644;2023-11-18T08:35:51;26.52;;;11.88;;
69511;SDS011;70777;52.034;4.644;2023-11-18T08:38:23;22.95;;;11.45;;
69511;SDS011;70777;52.034;4.644;2023-11-18T08:40:54;19.83;;;10.77;;
69511;SDS011;70777;52.034;4.644;2023-11-18T08:43:27;24.88;;;11.10;;
69511;SDS011;70777;52.034;4.644;2023-11-18T08:45:57;20.58;;;10.52;;
69511;SDS011;70777;52.034;4.644;2023-11-18T08:48:28;22.42;;;10.10;;
69511;SDS011;70777;52.034;4.644;2023-11-18T08:51:00;24.23;;;10.95;;
69511;SDS011;70777;52.034;4.644;2023-11-18T08:53:31;29.42;;;10.98;;
69511;SDS011;70777;52.034;4.644;2023-11-18T08:56:10;18.90;;;9.68;;
69511;SDS011;70777;52.034;4.644;2023-11-18T08:58:47;22.80;;;10.43;;
69511;SDS011;70777;52.034;4.644;2023-11-18T09:01:19;21.13;;;9.65;;
69511;SDS011;70777;52.034;4.644;2023-11-18T09:03:55;30.25;;;11.25;;
69511;SDS011;70777;52.034;4.644;2023-11-18T09:06:26;17.65;;;9.07;;
69511;SDS011;70777;52.034;4.644;2023-11-18T09:08:53;21.53;;;9.33;;
69511;SDS011;70777;52.034;4.644;2023-11-18T09:11:19;20.90;;;9.50;;
69511;SDS011;70777;52.034;4.644;2023-11-18T09:13:47;21.90;;;9.75;;
69511;SDS011;70777;52.034;4.644;2023-11-18T09:16:16;23.85;;;10.18;;
69511;SDS011;70777;52.034;4.644;2023-11-18T09:18:42;23.83;;;9.90;;
69511;SDS011;70777;52.034;4.644;2023-11-18T09:21:10;22.65;;;9.25;;
69511;SDS011;70777;52.034;4.644;2023-11-18T09:23:48;19.48;;;9.25;;
69511;SDS011;70777;52.034;4.644;2023-11-18T09:26:14;24.00;;;8.48;;
69511;SDS011;70777;52.034;4.644;2023-11-18T09:28:39;21.27;;;9.35;;
69511;SDS011;70777;52.034;4.644;2023-11-18T09:31:05;20.45;;;8.65;;
69511;SDS011;70777;52.034;4.644;2023-11-18T09:33:36;20.58;;;8.15;;
69511;SDS011;70777;52.034;4.644;2023-11-18T09:36:05;18.95;;;7.97;;
69511;SDS011;70777;52.034;4.644;2023-11-18T09:38:36;22.80;;;8.65;;
69511;SDS011;70777;52.034;4.644;2023-11-18T09:41:03;16.13;;;7.07;;
69511;SDS011;70777;52.034;4.644;2023-11-18T09:43:32;14.75;;;7.35;;
69511;SDS011;70777;52.034;4.644;2023-11-18T09:46:07;14.93;;;8.07;;
69511;SDS011;70777;52.034;4.644;2023-11-18T09:48:42;19.63;;;7.90;;
69511;SDS011;70777;52.034;4.644;2023-11-18T09:51:24;18.52;;;7.35;;
69511;SDS011;70777;52.034;4.644;2023-11-18T09:53:55;14.40;;;6.93;;
69511;SDS011;70777;52.034;4.644;2023-11-18T10:02:08;21.52;;;7.18;;
69511;SDS011;70777;52.034;4.644;2023-11-18T10:04:35;13.82;;;7.13;;
69511;SDS011;70777;52.034;4.644;2023-11-18T10:07:02;19.27;;;7.07;;
69511;SDS011;70777;52.034;4.644;2023-11-18T10:09:28;13.15;;;6.68;;
69511;SDS011;70777;52.034;4.644;2023-11-18T10:11:54;8.98;;;6.22;;
69511;SDS011;70777;52.034;4.644;2023-11-18T10:14:30;24.45;;;6.20;;
69511;SDS011;70777;52.034;4.644;2023-11-18T10:17:03;15.18;;;5.30;;
69511;SDS011;70777;52.034;4.644;2023-11-18T10:22:22;12.40;;;5.25;;
69511;SDS011;70777;52.034;4.644;2023-11-18T10:24:49;12.38;;;5.07;;
69511;SDS011;70777;52.034;4.644;2023-11-18T10:27:15;12.38;;;4.72;;
69511;SDS011;70777;52.034;4.644;2023-11-18T10:29:40;15.05;;;5.35;;
69511;SDS011;70777;52.034;4.644;2023-11-18T10:32:06;16.20;;;5.22;;
69511;SDS011;70777;52.034;4.644;2023-11-18T10:34:44;14.23;;;5.15;;
69511;SDS011;70777;52.034;4.644;2023-11-18T10:37:10;15.82;;;5.55;;
69511;SDS011;70777;52.034;4.644;2023-11-18T10:39:36;15.55;;;5.28;;
69511;SDS011;70777;52.034;4.644;2023-11-18T10:42:02;12.40;;;5.78;;
69511;SDS011;70777;52.034;4.644;2023-11-18T10:44:28;16.77;;;6.00;;
69511;SDS011;70777;52.034;4.644;2023-11-18T10:46:56;14.95;;;4.95;;
69511;SDS011;70777;52.034;4.644;2023-11-18T10:49:24;11.20;;;4.70;;
69511;SDS011;70777;52.034;4.644;2023-11-18T10:51:50;17.17;;;5.78;;
69511;SDS011;70777;52.034;4.644;2023-11-18T10:54:16;14.93;;;4.93;;
69511;SDS011;70777;52.034;4.644;2023-11-18T10:56:48;17.27;;;6.65;;
69511;SDS011;70777;52.034;4.644;2023-11-18T10:59:14;15.30;;;5.70;;
69511;SDS011;70777;52.034;4.644;2023-11-18T11:01:43;23.25;;;6.00;;
69511;SDS011;70777;52.034;4.644;2023-11-18T11:06:42;11.75;;;5.60;;
69511;SDS011;70777;52.034;4.644;2023-11-18T11:09:11;13.23;;;5.45;;
69511;SDS011;70777;52.034;4.644;2023-11-18T11:11:48;12.75;;;5.28;;
69511;SDS011;70777;52.034;4.644;2023-11-18T11:14:15;14.07;;;5.35;;
69511;SDS011;70777;52.034;4.644;2023-11-18T11:16:45;14.32;;;5.53;;
69511;SDS011;70777;52.034;4.644;2023-11-18T11:19:24;14.05;;;5.13;;
69511;SDS011;70777;52.034;4.644;2023-11-18T11:22:09;15.65;;;5.75;;
69511;SDS011;70777;52.034;4.644;2023-11-18T11:27:46;11.05;;;5.43;;
69511;SDS011;70777;52.034;4.644;2023-11-18T11:30:22;13.50;;;6.03;;
69511;SDS011;70777;52.034;4.644;2023-11-18T11:32:53;8.52;;;4.75;;
69511;SDS011;70777;52.034;4.644;2023-11-18T11:35:43;13.05;;;4.97;;
69511;SDS011;70777;52.034;4.644;2023-11-18T11:38:16;13.63;;;6.25;;
69511;SDS011;70777;52.034;4.644;2023-11-18T11:40:43;11.25;;;5.10;;
69511;SDS011;70777;52.034;4.644;2023-11-18T11:45:37;11.40;;;5.22;;
69511;SDS011;70777;52.034;4.644;2023-11-18T11:48:04;10.95;;;4.78;;
69511;SDS011;70777;52.034;4.644;2023-11-18T11:50:54;9.95;;;4.88;;
69511;SDS011;70777;52.034;4.644;2023-11-18T11:53:30;18.42;;;9.15;;
69511;SDS011;70777;52.034;4.644;2023-11-18T11:56:10;14.23;;;7.35;;
69511;SDS011;70777;52.034;4.644;2023-11-18T11:58:38;10.98;;;4.40;;
69511;SDS011;70777;52.034;4.644;2023-11-18T12:01:15;8.32;;;4.35;;
69511;SDS011;70777;52.034;4.644;2023-11-18T12:03:45;11.80;;;4.15;;
69511;SDS011;70777;52.034;4.644;2023-11-18T12:06:13;9.02;;;3.90;;
69511;SDS011;70777;52.034;4.644;2023-11-18T12:08:48;12.77;;;4.40;;
69511;SDS011;70777;52.034;4.644;2023-11-18T12:11:17;11.70;;;4.70;;
69511;SDS011;70777;52.034;4.644;2023-11-18T12:17:05;12.43;;;4.43;;
69511;SDS011;70777;52.034;4.644;2023-11-18T12:19:42;12.77;;;4.07;;
69511;SDS011;70777;52.034;4.644;2023-11-18T12:32:58;6.85;;;3.58;;
69511;SDS011;70777;52.034;4.644;2023-11-18T12:46:52;8.38;;;4.43;;
69511;SDS011;70777;52.034;4.644;2023-11-18T12:49:19;9.65;;;3.67;;
69511;SDS011;70777;52.034;4.644;2023-11-18T12:51:49;6.72;;;3.45;;
69511;SDS011;70777;52.034;4.644;2023-11-18T12:54:27;6.68;;;3.05;;
69511;SDS011;70777;52.034;4.644;2023-11-18T12:56:54;6.70;;;3.35;;
69511;SDS011;70777;52.034;4.644;2023-11-18T13:01:52;6.05;;;3.22;;
69511;SDS011;70777;52.034;4.644;2023-11-18T13:04:22;7.85;;;3.42;;
69511;SDS011;70777;52.034;4.644;2023-11-18T13:06:49;8.52;;;3.67;;
69511;SDS011;70777;52.034;4.644;2023-11-18T13:09:16;7.22;;;4.22;;
69511;SDS011;70777;52.034;4.644;2023-11-18T13:11:56;6.75;;;3.42;;
69511;SDS011;70777;52.034;4.644;2023-11-18T13:14:26;7.10;;;3.90;;
69511;SDS011;70777;52.034;4.644;2023-11-18T13:16:56;6.68;;;3.75;;
69511;SDS011;70777;52.034;4.644;2023-11-18T13:19:26;6.85;;;3.80;;
69511;SDS011;70777;52.034;4.644;2023-11-18T13:21:56;8.20;;;3.85;;
69511;SDS011;70777;52.034;4.644;2023-11-18T13:24:24;10.20;;;4.38;;
69511;SDS011;70777;52.034;4.644;2023-11-18T13:26:52;7.00;;;3.65;;
69511;SDS011;70777;52.034;4.644;2023-11-18T13:29:21;5.95;;;3.40;;
69511;SDS011;70777;52.034;4.644;2023-11-18T13:31:47;5.10;;;3.47;;
69511;SDS011;70777;52.034;4.644;2023-11-18T13:34:13;5.28;;;3.22;;
69511;SDS011;70777;52.034;4.644;2023-11-18T13:36:39;4.60;;;2.60;;
69511;SDS011;70777;52.034;4.644;2023-11-18T13:39:04;5.57;;;3.20;;
69511;SDS011;70777;52.034;4.644;2023-11-18T13:43:57;5.53;;;2.95;;
69511;SDS011;70777;52.034;4.644;2023-11-18T13:46:23;5.13;;;2.72;;
69511;SDS011;70777;52.034;4.644;2023-11-18T13:48:49;5.75;;;3.50;;
69511;SDS011;70777;52.034;4.644;2023-11-18T13:51:15;7.07;;;2.80;;
69511;SDS011;70777;52.034;4.644;2023-11-18T13:53:42;4.78;;;2.78;;
69511;SDS011;70777;52.034;4.644;2023-11-18T13:56:08;4.90;;;2.78;;
69511;SDS011;70777;52.034;4.644;2023-11-18T13:58:42;6.28;;;3.10;;
69511;SDS011;70777;52.034;4.644;2023-11-18T14:01:10;6.25;;;3.00;;
69511;SDS011;70777;52.034;4.644;2023-11-18T14:03:37;4.70;;;2.67;;
69511;SDS011;70777;52.034;4.644;2023-11-18T14:06:06;4.97;;;2.60;;
69511;SDS011;70777;52.034;4.644;2023-11-18T14:08:35;5.40;;;2.85;;
69511;SDS011;70777;52.034;4.644;2023-11-18T14:11:04;4.07;;;2.75;;
69511;SDS011;70777;52.034;4.644;2023-11-18T14:13:31;5.90;;;2.72;;
69511;SDS011;70777;52.034;4.644;2023-11-18T14:15:58;4.18;;;2.60;;
69511;SDS011;70777;52.034;4.644;2023-11-18T14:18:24;3.85;;;2.63;;
69511;SDS011;70777;52.034;4.644;2023-11-18T14:20:50;4.20;;;2.58;;
69511;SDS011;70777;52.034;4.644;2023-11-18T14:23:15;4.40;;;2.38;;
69511;SDS011;70777;52.034;4.644;2023-11-18T14:25:41;4.90;;;2.80;;
69511;SDS011;70777;52.034;4.644;2023-11-18T14:28:06;2.53;;;1.85;;
69511;SDS011;70777;52.034;4.644;2023-11-18T14:30:34;4.50;;;2.05;;
69511;SDS011;70777;52.034;4.644;2023-11-18T14:32:59;3.28;;;2.30;;
69511;SDS011;70777;52.034;4.644;2023-11-18T14:35:25;3.65;;;2.15;;
69511;SDS011;70777;52.034;4.644;2023-11-18T14:37:51;4.07;;;2.50;;
69511;SDS011;70777;52.034;4.644;2023-11-18T14:40:16;4.40;;;2.30;;
69511;SDS011;70777;52.034;4.644;2023-11-18T14:42:42;2.80;;;2.28;;
69511;SDS011;70777;52.034;4.644;2023-11-18T14:45:12;2.90;;;2.00;;
69511;SDS011;70777;52.034;4.644;2023-11-18T14:47:39;4.28;;;2.40;;
69511;SDS011;70777;52.034;4.644;2023-11-18T14:50:05;6.38;;;2.40;;
69511;SDS011;70777;52.034;4.644;2023-11-18T14:52:40;3.80;;;2.20;;
69511;SDS011;70777;52.034;4.644;2023-11-18T14:55:06;4.90;;;2.25;;
69511;SDS011;70777;52.034;4.644;2023-11-18T14:57:37;3.10;;;2.25;;
69511;SDS011;70777;52.034;4.644;2023-11-18T15:00:06;4.78;;;2.17;;
69511;SDS011;70777;52.034;4.644;2023-11-18T15:02:36;4.18;;;2.50;;
69511;SDS011;70777;52.034;4.644;2023-11-18T15:05:01;5.13;;;2.30;;
69511;SDS011;70777;52.034;4.644;2023-11-18T15:07:31;3.75;;;2.40;;
69511;SDS011;70777;52.034;4.644;2023-11-18T15:09:57;3.42;;;2.50;;
69511;SDS011;70777;52.034;4.644;2023-11-18T15:12:22;4.80;;;2.95;;
69511;SDS011;70777;52.034;4.644;2023-11-18T15:14:48;4.70;;;3.03;;
69511;SDS011;70777;52.034;4.644;2023-11-18T15:17:14;5.32;;;3.15;;
69511;SDS011;70777;52.034;4.644;2023-11-18T15:19:39;6.38;;;3.70;;
69511;SDS011;70777;52.034;4.644;2023-11-18T15:22:05;4.45;;;3.17;;
69511;SDS011;70777;52.034;4.644;2023-11-18T15:24:30;6.95;;;3.80;;
69511;SDS011;70777;52.034;4.644;2023-11-18T15:26:57;5.82;;;3.55;;
69511;SDS011;70777;52.034;4.644;2023-11-18T15:29:25;5.10;;;3.60;;
69511;SDS011;70777;52.034;4.644;2023-11-18T15:31:58;5.80;;;3.45;;
69511;SDS011;70777;52.034;4.644;2023-11-18T15:34:23;5.47;;;3.05;;
69511;SDS011;70777;52.034;4.644;2023-11-18T15:36:50;4.57;;;3.35;;